Time;durP1;ratioP1;P1;durP2;ratioP2;P2;SDS_P1;SDS_P2;PMS_P1;PMS_P2;Temp;Humidity;BMP_temperature;BMP_pressure;BME280_temperature;BME280_humidity;BME280_pressure;Samples;Min_cycle;Max_cycle;Signal;HPM_P1;HPM_P2
2021/06/05 00:01:31;;;;;;;1.03;0.80;;;;;;;19.11;71.62;99210.09;5117046;27;39918;-82
2021/06/05 00:03:59;;;;;;;0.33;0.33;;;;;;;19.03;71.29;99186.66;5117344;27;40841;-78
2021/06/05 00:06:28;;;;;;;0.73;0.73;;;;;;;19.05;72.36;99195.38;5139640;27;43463;-78
2021/06/05 00:08:56;;;;;;;1.37;0.80;;;;;;;18.99;72.50;99191.44;5096903;27;42163;-80
2021/06/05 00:11:27;;;;;;;1.17;1.07;;;;;;;18.95;72.27;99184.66;5096395;27;40108;-78
2021/06/05 00:13:57;;;;;;;1.00;1.00;;;;;;;18.96;72.64;99191.72;5095734;27;41825;-80
2021/06/05 00:16:32;;;;;;;1.13;1.03;;;;;;;18.93;72.79;99186.63;5151820;27;42592;-81
2021/06/05 00:18:59;;;;;;;0.67;0.67;;;;;;;18.80;72.34;99179.84;5133501;27;41534;-82
2021/06/05 00:21:27;;;;;;;0.60;0.60;;;;;;;18.80;72.00;99191.41;5125633;27;39248;-80
2021/06/05 00:23:55;;;;;;;0.50;0.50;;;;;;;18.78;71.93;99188.06;5111917;27;41650;-80
2021/06/05 00:26:24;;;;;;;0.70;0.70;;;;;;;18.73;72.50;99181.38;5096131;27;41751;-82
2021/06/05 00:28:52;;;;;;;1.40;1.30;;;;;;;18.79;73.95;99192.41;5111967;27;43083;-81
2021/06/05 00:31:20;;;;;;;1.67;1.57;;;;;;;18.75;73.55;99193.69;5148062;27;40439;-81
2021/06/05 00:33:47;;;;;;;0.90;0.67;;;;;;;18.67;73.39;99182.78;5133302;27;41669;-81
2021/06/05 00:36:14;;;;;;;0.80;0.80;;;;;;;18.73;73.04;99201.03;5148381;27;43329;-82
2021/06/05 00:38:42;;;;;;;1.37;1.27;;;;;;;18.56;72.90;99180.19;5130394;27;42894;-79
2021/06/05 00:41:13;;;;;;;0.70;0.70;;;;;;;18.57;73.30;99184.56;5112246;27;39841;-79
2021/06/05 00:43:58;;;;;;;0.70;0.70;;;;;;;18.70;73.79;99205.81;5098111;27;40735;-82
2021/06/05 00:46:27;;;;;;;0.77;0.63;;;;;;;18.67;73.58;99196.19;5126933;27;42569;-82
2021/06/05 00:48:57;;;;;;;1.47;0.90;;;;;;;18.70;73.84;99197.75;5133123;27;41954;-80
2021/06/05 00:51:34;;;;;;;0.70;0.70;;;;;;;18.69;74.83;99202.28;5131177;27;40273;-80
2021/06/05 00:54:05;;;;;;;0.60;0.60;;;;;;;18.67;74.59;99213.16;5096227;27;41571;-82
2021/06/05 00:56:33;;;;;;;0.87;0.80;;;;;;;18.59;73.90;99193.38;5130003;27;42839;-80
2021/06/05 00:59:01;;;;;;;1.00;1.00;;;;;;;18.61;74.03;99188.72;5095848;27;41258;-81
2021/06/05 01:01:31;;;;;;;1.30;0.97;;;;;;;18.57;74.38;99190.78;5126371;27;39081;-82
2021/06/05 01:03:59;;;;;;;0.60;0.60;;;;;;;18.45;73.76;99180.31;5132640;27;42227;-80
2021/06/05 01:06:31;;;;;;;1.30;1.20;;;;;;;18.60;73.34;99203.97;5133130;27;42605;-81
2021/06/05 01:09:04;;;;;;;0.77;0.77;;;;;;;18.60;74.23;99195.06;5112318;27;41189;-82
2021/06/05 01:11:42;;;;;;;1.43;1.30;;;;;;;18.63;74.12;99201.00;5111947;27;39974;-82
2021/06/05 01:14:18;;;;;;;1.20;0.77;;;;;;;18.64;73.90;99201.88;5112008;27;40704;-81
2021/06/05 01:16:48;;;;;;;1.10;1.00;;;;;;;18.65;73.48;99208.94;5111405;27;42733;-80
2021/06/05 01:19:35;;;;;;;0.90;0.90;;;;;;;18.51;73.44;99174.41;5129066;27;41932;-82
2021/06/05 01:22:19;;;;;;;0.50;0.50;;;;;;;18.63;72.99;99197.47;5110683;27;39913;-79
2021/06/05 01:25:06;;;;;;;2.07;1.63;;;;;;;18.59;73.08;99193.38;5133730;27;40776;-83
2021/06/05 01:27:40;;;;;;;0.50;0.50;;;;;;;18.59;73.19;99198.72;5149773;27;42588;-80
2021/06/05 01:30:15;;;;;;;0.57;0.57;;;;;;;18.54;73.28;99192.91;5132881;27;41740;-81
2021/06/05 01:32:43;;;;;;;0.70;0.70;;;;;;;18.50;73.10;99183.44;5134507;27;39630;-82
2021/06/05 01:35:13;;;;;;;0.70;0.70;;;;;;;18.46;73.73;99172.13;5095325;27;40773;-79
2021/06/05 01:37:41;;;;;;;0.97;0.97;;;;;;;18.38;73.93;99168.44;5113247;27;43621;-82
2021/06/05 01:40:18;;;;;;;1.00;1.00;;;;;;;18.39;73.94;99173.69;5115503;27;41264;-79
2021/06/05 01:42:47;;;;;;;1.50;1.40;;;;;;;18.37;74.61;99166.75;5133513;27;39787;-80
2021/06/05 01:45:25;;;;;;;0.73;0.73;;;;;;;18.35;74.79;99164.22;5131998;27;41654;-79
2021/06/05 01:47:55;;;;;;;1.00;1.00;;;;;;;18.33;74.76;99157.28;5117634;27;43495;-80
2021/06/05 01:50:27;;;;;;;0.87;0.87;;;;;;;18.33;74.93;99165.31;5109934;27;41729;-81
2021/06/05 01:52:57;;;;;;;1.33;1.17;;;;;;;18.36;74.36;99170.41;5128453;27;39856;-80
2021/06/05 01:55:31;;;;;;;0.47;0.47;;;;;;;18.30;74.26;99161.06;5110860;27;40807;-81
2021/06/05 01:58:13;;;;;;;0.70;0.70;;;;;;;18.41;73.90;99168.19;5112187;27;42864;-82
2021/06/05 02:00:53;;;;;;;0.73;0.73;;;;;;;18.40;73.76;99166.50;5146138;27;42230;-81
2021/06/05 02:03:23;;;;;;;1.33;0.83;;;;;;;18.34;73.75;99161.66;5131741;27;40765;-81
2021/06/05 02:06:06;;;;;;;0.80;0.80;;;;;;;18.37;73.78;99169.44;5110500;27;41941;-82
2021/06/05 02:08:35;;;;;;;1.43;0.97;;;;;;;18.34;73.54;99167.88;5111901;27;42043;-80
2021/06/05 02:11:08;;;;;;;0.53;0.53;;;;;;;18.31;73.47;99177.03;5094557;27;41167;-81
2021/06/05 02:13:43;;;;;;;0.67;0.67;;;;;;;18.14;73.44;99161.63;5127680;27;40591;-81
2021/06/05 02:16:24;;;;;;;1.70;1.23;;;;;;;18.21;73.45;99184.19;5127618;27;41527;-81
2021/06/05 02:18:55;;;;;;;0.90;0.90;;;;;;;18.20;73.68;99189.69;5131353;27;42648;-81
2021/06/05 02:21:33;;;;;;;0.60;0.60;;;;;;;18.07;73.49;99170.31;5144042;27;42928;-82
2021/06/05 02:24:05;;;;;;;0.60;0.60;;;;;;;18.12;73.27;99176.97;5094347;27;40841;-81
2021/06/05 02:26:36;;;;;;;0.60;0.60;;;;;;;18.02;73.35;99165.38;5110703;27;42395;-80
2021/06/05 02:29:08;;;;;;;0.60;0.60;;;;;;;18.07;73.34;99181.88;5093807;27;43000;-81
2021/06/05 02:31:38;;;;;;;0.50;0.50;;;;;;;17.95;73.28;99161.53;5112049;27;42577;-80
2021/06/05 02:34:09;;;;;;;1.60;1.13;;;;;;;17.92;72.96;99157.31;5128493;27;40678;-80
2021/06/05 02:36:39;;;;;;;1.53;0.97;;;;;;;18.01;73.38;99171.72;5117644;27;41701;-80
2021/06/05 02:39:08;;;;;;;0.50;0.50;;;;;;;17.97;73.39;99170.28;5133964;27;43341;-81
2021/06/05 02:41:36;;;;;;;2.20;1.00;;;;;;;18.00;73.56;99174.53;5153398;27;43288;-80
2021/06/05 02:44:05;;;;;;;1.27;1.17;;;;;;;17.98;73.41;99179.19;5135434;27;40326;-80
2021/06/05 02:46:39;;;;;;;0.60;0.60;;;;;;;17.96;73.52;99165.91;5121858;27;41856;-81
2021/06/05 02:49:09;;;;;;;1.60;1.20;;;;;;;17.93;73.31;99168.84;5114970;27;42083;-80
2021/06/05 02:51:45;;;;;;;0.93;0.90;;;;;;;17.88;72.96;99177.31;5132056;27;42935;-80
2021/06/05 02:54:20;;;;;;;0.50;0.40;;;;;;;17.81;73.01;99160.06;5117897;27;38945;-80
2021/06/05 02:56:48;;;;;;;0.77;0.77;;;;;;;17.91;72.80;99185.09;5134353;27;41673;-81
2021/06/05 02:59:17;;;;;;;0.60;0.60;;;;;;;17.90;72.96;99190.56;5118454;27;41387;-80
2021/06/05 03:01:51;;;;;;;0.70;0.70;;;;;;;17.90;72.90;99190.56;5140153;27;42687;-80
2021/06/05 03:04:20;;;;;;;0.40;0.40;;;;;;;17.78;72.79;99164.84;5130419;27;39959;-80
2021/06/05 03:06:49;;;;;;;0.83;0.50;;;;;;;17.86;73.35;99181.94;5113490;27;41733;-80
2021/06/05 03:09:19;;;;;;;0.63;0.63;;;;;;;17.83;73.46;99186.72;5131281;27;42068;-81
2021/06/05 03:11:49;;;;;;;0.50;0.50;;;;;;;17.87;73.35;99190.84;5134230;27;42173;-81
2021/06/05 03:14:19;;;;;;;0.33;0.33;;;;;;;17.87;73.12;99196.19;5117914;27;39034;-79
2021/06/05 03:16:48;;;;;;;0.60;0.60;;;;;;;17.88;72.86;99201.44;5126649;27;40764;-79
2021/06/05 03:19:19;;;;;;;0.50;0.50;;;;;;;17.89;72.98;99210.31;5114461;27;42085;-80
2021/06/05 03:21:49;;;;;;;0.83;0.83;;;;;;;17.86;73.08;99202.53;5113518;27;41493;-81
2021/06/05 03:24:20;;;;;;;0.50;0.50;;;;;;;17.78;72.86;99183.59;5129963;27;40604;-80
2021/06/05 03:26:49;;;;;;;1.03;1.03;;;;;;;17.92;72.61;99204.69;5133545;27;42504;-81
2021/06/05 03:29:18;;;;;;;0.70;0.67;;;;;;;17.89;72.27;99205.81;5134045;27;43215;-80
2021/06/05 03:31:55;;;;;;;0.83;0.40;;;;;;;17.83;72.42;99182.22;5113342;27;42512;-81
2021/06/05 03:34:24;;;;;;;0.60;0.60;;;;;;;17.93;72.93;99196.50;5113139;27;39865;-81
2021/06/05 03:36:51;;;;;;;0.50;0.50;;;;;;;17.84;73.00;99175.88;5121162;27;41440;-80
2021/06/05 03:39:23;;;;;;;1.27;0.70;;;;;;;17.89;72.97;99191.56;5144573;27;43459;-80
2021/06/05 03:41:53;;;;;;;0.30;0.30;;;;;;;17.95;73.07;99204.41;5136800;27;41437;-80
2021/06/05 03:44:24;;;;;;;0.20;0.20;;;;;;;17.99;73.10;99202.31;5151842;27;40243;-79
2021/06/05 03:46:53;;;;;;;0.30;0.30;;;;;;;17.97;72.86;99191.72;5136940;27;40707;-79
2021/06/05 03:49:22;;;;;;;0.27;0.27;;;;;;;18.03;73.18;99201.94;5172693;27;43107;-80
2021/06/05 03:51:50;;;;;;;0.40;0.40;;;;;;;18.06;72.90;99212.34;5156097;27;42671;-80
2021/06/05 03:54:20;;;;;;;0.50;0.50;;;;;;;18.08;72.54;99204.19;5152034;27;40358;-80
2021/06/05 03:56:47;;;;;;;0.57;0.53;;;;;;;18.10;72.65;99213.78;5117540;27;42016;-80
2021/06/05 03:59:14;;;;;;;0.30;0.30;;;;;;;18.14;72.88;99215.22;5132110;27;42739;-79
2021/06/05 04:01:43;;;;;;;0.90;0.90;;;;;;;18.16;72.98;99213.28;5153022;27;43025;-81
2021/06/05 04:04:10;;;;;;;0.30;0.30;;;;;;;18.24;72.56;99220.63;5134136;27;40062;-81
2021/06/05 04:06:38;;;;;;;0.50;0.50;;;;;;;18.29;72.92;99224.59;5107865;27;41021;-80
2021/06/05 04:09:06;;;;;;;1.07;1.07;;;;;;;18.34;72.73;99216.13;5099603;27;41483;-79
2021/06/05 04:11:33;;;;;;;0.40;0.40;;;;;;;18.42;72.35;99218.16;5097459;27;42040;-80
2021/06/05 04:14:02;;;;;;;1.03;0.80;;;;;;;18.37;72.62;99201.63;5125325;27;40447;-81
2021/06/05 04:16:30;;;;;;;0.37;0.37;;;;;;;18.52;72.57;99222.56;5132990;27;41621;-81
2021/06/05 04:18:59;;;;;;;0.43;0.43;;;;;;;18.59;72.52;99222.88;5133764;27;43091;-81
2021/06/05 04:21:26;;;;;;;0.70;0.37;;;;;;;18.57;72.38;99212.25;5151925;27;41771;-79
2021/06/05 04:23:55;;;;;;;0.53;0.53;;;;;;;18.69;72.19;99223.75;5133304;27;39779;-80
2021/06/05 04:26:23;;;;;;;0.20;0.20;;;;;;;18.64;72.08;99212.59;5131526;27;41488;-81
2021/06/05 04:28:50;;;;;;;0.67;0.50;;;;;;;18.81;71.94;99219.09;5112745;27;41821;-79
2021/06/05 04:31:18;;;;;;;0.33;0.20;;;;;;;18.88;71.81;99226.47;5130781;27;42655;-80
2021/06/05 04:33:45;;;;;;;0.40;0.40;;;;;;;18.91;71.54;99218.16;5133135;27;40088;-80
2021/06/05 04:36:15;;;;;;;0.30;0.30;;;;;;;18.97;71.27;99231.00;5132512;27;41719;-79
2021/06/05 04:38:43;;;;;;;0.30;0.30;;;;;;;18.95;71.10;99211.50;5151441;27;43407;-81
2021/06/05 04:41:13;;;;;;;0.30;0.30;;;;;;;19.13;71.09;99216.19;5133723;27;42663;-81
2021/06/05 04:43:41;;;;;;;1.23;0.50;;;;;;;19.23;71.18;99215.19;5151591;27;38881;-80
2021/06/05 04:46:09;;;;;;;0.77;0.77;;;;;;;19.36;71.18;99220.28;5144608;27;41719;-81
2021/06/05 04:48:36;;;;;;;0.57;0.57;;;;;;;19.47;70.75;99222.81;5134345;27;41885;-81
2021/06/05 04:51:04;;;;;;;0.90;0.90;;;;;;;19.54;70.89;99229.31;5130868;27;41087;-81
2021/06/05 04:53:32;;;;;;;0.57;0.47;;;;;;;19.54;70.62;99223.09;5151394;27;38765;-79
2021/06/05 04:55:59;;;;;;;0.40;0.40;;;;;;;19.65;70.50;99225.66;5150789;27;41999;-79
2021/06/05 04:58:27;;;;;;;0.50;0.50;;;;;;;19.72;70.54;99232.97;5150448;27;41814;-80
2021/06/05 05:00:55;;;;;;;0.53;0.53;;;;;;;19.79;70.24;99235.91;5132990;27;41161;-80
2021/06/05 05:03:27;;;;;;;0.40;0.40;;;;;;;19.88;70.28;99234.22;5132827;27;40860;-82
2021/06/05 05:05:59;;;;;;;0.40;0.40;;;;;;;19.98;69.95;99226.97;5150388;27;41067;-79
2021/06/05 05:08:27;;;;;;;0.33;0.33;;;;;;;20.06;69.93;99235.13;5150972;27;41937;-80
2021/06/05 05:10:57;;;;;;;0.20;0.20;;;;;;;19.93;69.79;99208.56;5149532;27;42861;-81
2021/06/05 05:13:28;;;;;;;0.40;0.40;;;;;;;20.09;69.92;99230.31;5133013;27;39157;-81
2021/06/05 05:15:57;;;;;;;1.27;1.17;;;;;;;20.07;70.07;99232.31;5133269;27;40718;-79
2021/06/05 05:18:25;;;;;;;0.60;0.60;;;;;;;20.09;69.89;99229.47;5148985;27;42398;-81
2021/06/05 05:20:54;;;;;;;0.30;0.30;;;;;;;20.15;69.92;99230.75;5150980;27;42062;-80
2021/06/05 05:23:25;;;;;;;0.57;0.57;;;;;;;19.92;69.66;99185.38;5149549;27;40583;-81
2021/06/05 05:25:52;;;;;;;0.30;0.30;;;;;;;20.20;69.43;99221.22;5148910;27;41642;-79
2021/06/05 05:28:22;;;;;;;2.10;1.00;;;;;;;20.25;69.66;99224.31;5131454;27;43453;-79
2021/06/05 05:30:51;;;;;;;0.20;0.20;;;;;;;20.28;69.45;99229.38;5132552;27;42302;-79
2021/06/05 05:33:18;;;;;;;0.97;0.97;;;;;;;20.41;69.32;99232.63;5114882;27;39246;-81
2021/06/05 05:35:47;;;;;;;0.97;0.97;;;;;;;20.48;69.03;99229.34;5116294;27;41662;-81
2021/06/05 05:38:15;;;;;;;1.00;0.77;;;;;;;20.55;68.85;99223.19;5130978;27;43359;-80
2021/06/05 05:40:43;;;;;;;0.53;0.53;;;;;;;20.77;68.43;99224.66;5150793;27;42256;-78
2021/06/05 05:43:11;;;;;;;0.63;0.60;;;;;;;20.93;68.29;99226.66;5132546;27;39092;-81
2021/06/05 05:45:41;;;;;;;0.63;0.63;;;;;;;21.09;67.67;99224.13;5132259;27;42180;-81
2021/06/05 05:48:11;;;;;;;0.50;0.50;;;;;;;21.25;67.72;99220.78;5132061;27;42579;-80
2021/06/05 05:50:40;;;;;;;0.47;0.47;;;;;;;21.37;67.07;99195.28;5115523;27;41269;-81
2021/06/05 05:53:08;;;;;;;0.70;0.70;;;;;;;21.83;66.38;99230.00;5149274;27;41523;-80
2021/06/05 05:55:35;;;;;;;0.50;0.50;;;;;;;22.12;64.99;99223.47;5132524;27;41392;-80
2021/06/05 05:58:05;;;;;;;0.70;0.70;;;;;;;22.36;64.59;99226.31;5115099;27;42156;-83
2021/06/05 06:00:34;;;;;;;0.40;0.40;;;;;;;22.69;63.51;99232.66;5115788;27;41376;-81
2021/06/05 06:03:03;;;;;;;0.50;0.40;;;;;;;22.82;63.21;99222.28;5131277;27;41338;-80
2021/06/05 06:05:30;;;;;;;0.30;0.30;;;;;;;23.08;62.92;99232.97;5115806;27;40535;-79
2021/06/05 06:07:58;;;;;;;0.57;0.57;;;;;;;23.19;62.54;99243.47;5132603;27;42728;-79
2021/06/05 06:10:25;;;;;;;0.73;0.73;;;;;;;23.21;61.70;99233.34;5135813;27;44059;-80
2021/06/05 06:12:53;;;;;;;0.60;0.60;;;;;;;23.36;61.07;99246.19;5118964;27;38959;-80
2021/06/05 06:15:23;;;;;;;0.40;0.40;;;;;;;23.45;61.43;99239.78;5119082;27;40955;-80
2021/06/05 06:17:52;;;;;;;0.40;0.40;;;;;;;23.57;60.48;99233.03;5135375;27;43507;-83
2021/06/05 06:20:23;;;;;;;0.43;0.43;;;;;;;23.98;59.46;99245.50;5117960;27;42085;-82
2021/06/05 06:22:51;;;;;;;1.37;1.27;;;;;;;24.00;59.51;99246.16;5134856;27;39602;-80
2021/06/05 06:25:20;;;;;;;0.43;0.43;;;;;;;23.94;59.48;99241.47;5134951;27;41792;-80
2021/06/05 06:27:48;;;;;;;0.40;0.40;;;;;;;24.20;59.35;99248.50;5150730;27;43469;-83
2021/06/05 06:30:18;;;;;;;0.37;0.37;;;;;;;24.24;58.70;99255.28;5136066;27;41108;-82
2021/06/05 06:32:50;;;;;;;2.43;1.10;;;;;;;24.16;58.41;99244.44;5151454;27;40170;-83
2021/06/05 06:35:18;;;;;;;0.60;0.60;;;;;;;24.34;58.38;99253.25;5134930;27;40667;-82
2021/06/05 06:37:47;;;;;;;0.30;0.30;;;;;;;24.47;57.68;99258.13;5140491;27;41893;-82
2021/06/05 06:40:15;;;;;;;0.30;0.30;;;;;;;24.57;57.30;99253.31;5126070;27;42203;-82
2021/06/05 06:42:42;;;;;;;0.30;0.30;;;;;;;24.61;57.51;99252.78;5148831;27;40598;-82
2021/06/05 06:45:11;;;;;;;0.43;0.43;;;;;;;24.61;56.54;99250.06;5132702;27;42001;-83
2021/06/05 06:47:38;;;;;;;0.40;0.40;;;;;;;24.67;56.53;99241.25;5114211;27;41835;-81
2021/06/05 06:50:07;;;;;;;0.50;0.50;;;;;;;24.72;56.62;99242.59;5146511;27;42762;-83
2021/06/05 06:52:34;;;;;;;0.50;0.50;;;;;;;24.67;57.14;99210.63;5114577;27;38593;-80
2021/06/05 06:55:04;;;;;;;0.40;0.40;;;;;;;24.92;55.82;99224.88;5149094;27;41689;-83
2021/06/05 06:57:32;;;;;;;0.37;0.37;;;;;;;25.20;55.36;99238.81;5148959;27;43023;-84
2021/06/05 06:59:59;;;;;;;0.87;0.47;;;;;;;25.42;54.75;99237.94;5115056;27;41243;-81
2021/06/05 07:02:27;;;;;;;0.30;0.30;;;;;;;25.74;53.52;99253.97;5130899;27;39555;-83
2021/06/05 07:04:54;;;;;;;0.30;0.30;;;;;;;26.20;51.77;99264.75;5133797;27;41414;-84
2021/06/05 07:07:22;;;;;;;0.47;0.47;;;;;;;26.74;50.67;99275.34;5149540;27;43561;-83
2021/06/05 07:09:49;;;;;;;0.50;0.50;;;;;;;26.65;49.93;99241.16;5148916;27;41940;-81
2021/06/05 07:12:17;;;;;;;0.73;0.60;;;;;;;26.80;50.26;99267.31;5130587;27;40683;-83
2021/06/05 07:14:44;;;;;;;0.20;0.20;;;;;;;26.51;50.47;99248.28;5113683;27;40787;-85
2021/06/05 07:17:11;;;;;;;0.30;0.30;;;;;;;26.51;51.01;99253.72;5130156;27;41746;-81
2021/06/05 07:19:39;;;;;;;0.40;0.40;;;;;;;26.69;50.87;99269.66;5148009;27;41943;-84
2021/06/05 07:22:06;;;;;;;0.80;0.80;;;;;;;26.83;50.13;99258.75;5128449;27;39719;-81
2021/06/05 07:24:33;;;;;;;0.27;0.27;;;;;;;26.87;49.42;99267.38;5149007;27;41562;-83
2021/06/05 07:27:00;;;;;;;0.50;0.50;;;;;;;27.86;47.92;99272.03;5133558;27;42729;-84
2021/06/05 07:29:30;;;;;;;0.40;0.40;;;;;;;29.37;45.42;99284.03;5131565;27;42123;-82
2021/06/05 07:31:57;;;;;;;0.30;0.30;;;;;;;30.68;42.45;99283.25;5114376;27;39447;-83
2021/06/05 07:34:26;;;;;;;0.50;0.30;;;;;;;31.82;40.14;99305.25;5113350;27;41768;-82
2021/06/05 07:36:56;;;;;;;0.37;0.37;;;;;;;32.31;38.53;99298.13;5121954;27;41725;-82
2021/06/05 07:39:26;;;;;;;0.63;0.63;;;;;;;33.01;38.67;99279.47;5117690;27;44050;-80
2021/06/05 07:41:55;;;;;;;1.23;1.13;;;;;;;34.19;36.26;99310.72;5134589;27;39617;-79
2021/06/05 07:44:22;;;;;;;0.50;0.50;;;;;;;35.19;35.01;99316.06;5113939;27;41765;-80
2021/06/05 07:46:56;;;;;;;0.50;0.50;;;;;;;35.86;33.63;99327.31;5134318;27;43050;-80
2021/06/05 07:49:24;;;;;;;0.70;0.40;;;;;;;34.95;34.34;99330.97;5116611;27;42372;-86
2021/06/05 07:51:52;;;;;;;0.40;0.40;;;;;;;34.01;35.02;99321.78;5112932;27;38818;-86
2021/06/05 07:54:19;;;;;;;0.50;0.50;;;;;;;33.53;36.66;99299.91;5111823;27;40975;-80
2021/06/05 07:56:49;;;;;;;0.63;0.63;;;;;;;33.23;37.15;99297.13;5112950;27;42758;-85
2021/06/05 07:59:17;;;;;;;0.40;0.40;;;;;;;32.98;37.57;99280.78;5141518;27;43090;-84
2021/06/05 08:01:45;;;;;;;0.30;0.30;;;;;;;32.81;37.98;99287.94;5150606;27;39970;-83
2021/06/05 08:04:14;;;;;;;0.30;0.30;;;;;;;32.69;38.05;99281.50;5131928;27;41491;-82
2021/06/05 08:06:41;;;;;;;0.40;0.40;;;;;;;32.75;37.32;99291.59;5117761;27;42342;-86
2021/06/05 08:09:09;;;;;;;0.30;0.30;;;;;;;32.72;37.33;99292.06;5116325;27;42510;-84
2021/06/05 08:11:36;;;;;;;0.37;0.37;;;;;;;32.70;37.29;99294.16;5116193;27;40705;-82
2021/06/05 08:14:04;;;;;;;0.37;0.33;;;;;;;32.46;38.21;99288.50;5139474;27;41748;-84
2021/06/05 08:16:36;;;;;;;0.60;0.50;;;;;;;32.36;38.27;99293.66;5134829;27;43598;-85
2021/06/05 08:19:03;;;;;;;0.53;0.53;;;;;;;32.14;38.47;99292.38;5150851;27;42921;-86
2021/06/05 08:21:32;;;;;;;0.53;0.53;;;;;;;31.84;38.81;99250.25;5134450;27;40437;-85
2021/06/05 08:24:00;;;;;;;0.30;0.30;;;;;;;31.92;38.66;99285.59;5132859;27;41543;-82
2021/06/05 08:26:27;;;;;;;0.80;0.80;;;;;;;31.77;38.55;99261.28;5152035;27;43013;-84
2021/06/05 08:28:54;;;;;;;0.40;0.40;;;;;;;31.90;39.00;99282.25;5132733;27;41421;-84
2021/06/05 08:31:22;;;;;;;0.40;0.40;;;;;;;31.90;38.33;99287.72;5116669;27;39911;-85
2021/06/05 08:33:49;;;;;;;0.80;0.80;;;;;;;31.96;38.68;99286.81;5132830;27;41753;-81
2021/06/05 08:36:23;;;;;;;0.37;0.37;;;;;;;31.92;39.02;99286.44;5116454;27;41814;-83
2021/06/05 08:38:53;;;;;;;0.50;0.50;;;;;;;31.96;39.33;99286.81;5150683;27;43173;-81
2021/06/05 08:41:23;;;;;;;0.30;0.30;;;;;;;31.96;39.07;99292.31;5132793;27;40464;-83
2021/06/05 08:43:54;;;;;;;0.67;0.50;;;;;;;31.89;38.94;99295.13;5115397;27;42360;-83
2021/06/05 08:46:25;;;;;;;0.33;0.33;;;;;;;31.86;39.39;99295.56;5150872;27;42695;-83
2021/06/05 08:48:54;;;;;;;0.40;0.40;;;;;;;31.59;38.95;99267.47;5133750;27;42534;-82
2021/06/05 08:51:27;;;;;;;0.50;0.50;;;;;;;31.61;39.61;99281.78;5115623;27;38950;-80
2021/06/05 08:54:03;;;;;;;0.30;0.30;;;;;;;31.54;38.99;99294.66;5150002;27;41411;-84
2021/06/05 08:56:35;;;;;;;0.40;0.40;;;;;;;31.39;39.85;99291.41;5133966;27;42965;-80
2021/06/05 08:59:03;;;;;;;1.03;0.97;;;;;;;31.30;39.31;99282.59;5126718;27;41232;-83
2021/06/05 09:01:37;;;;;;;0.60;0.60;;;;;;;31.32;39.37;99288.69;5116637;27;38783;-82
2021/06/05 09:04:09;;;;;;;0.40;0.40;;;;;;;31.28;39.62;99283.91;5115162;27;41935;-82
2021/06/05 09:06:40;;;;;;;0.20;0.20;;;;;;;31.43;39.66;99282.53;5151259;27;43755;-83
2021/06/05 09:09:13;;;;;;;0.40;0.40;;;;;;;31.76;38.94;99296.06;5150050;27;42824;-84
2021/06/05 09:11:45;;;;;;;0.50;0.50;;;;;;;31.94;38.82;99288.94;5096574;27;20226;-82
2021/06/05 09:14:12;;;;;;;0.40;0.40;;;;;;;32.12;37.59;99302.72;5139628;27;41418;-85
2021/06/05 09:16:46;;;;;;;0.47;0.47;;;;;;;32.07;37.59;99299.78;5132617;27;43471;-81
2021/06/05 09:19:17;;;;;;;0.30;0.30;;;;;;;32.16;37.76;99292.97;5149282;27;42372;-81
2021/06/05 09:21:47;;;;;;;0.27;0.27;;;;;;;32.29;37.72;99306.59;5132124;27;39624;-81
2021/06/05 09:24:32;;;;;;;0.30;0.30;;;;;;;32.13;37.03;99316.19;5115154;27;40692;-82
2021/06/05 09:27:10;;;;;;;1.03;0.40;;;;;;;31.86;38.01;99303.78;5150207;27;42764;-82
2021/06/05 09:29:51;;;;;;;1.27;0.83;;;;;;;31.58;38.62;99306.03;5132895;27;41042;-83
2021/06/05 09:32:21;;;;;;;0.40;0.40;;;;;;;31.43;38.50;99309.06;5148775;27;39936;-82
2021/06/05 09:34:51;;;;;;;0.70;0.70;;;;;;;31.13;38.28;99291.56;5120558;27;40451;-85
2021/06/05 09:37:28;;;;;;;1.17;1.08;;;;;;;30.95;39.88;99273.91;5115363;27;41980;-84
2021/06/05 09:40:07;;;;;;;0.93;0.73;;;;;;;31.03;39.11;99314.69;5116761;27;41385;-81
2021/06/05 09:42:39;;;;;;;1.10;1.10;;;;;;;30.92;39.47;99301.69;5148552;27;40101;-81
2021/06/05 09:45:20;;;;;;;0.20;0.20;;;;;;;30.84;39.16;99304.66;5147868;27;41634;-82
2021/06/05 09:47:48;;;;;;;0.20;0.20;;;;;;;30.70;39.52;99303.88;5095028;27;44678;-82
2021/06/05 09:50:22;;;;;;;0.43;0.43;;;;;;;30.56;40.29;99295.91;5129689;27;43188;-83
2021/06/05 09:52:49;;;;;;;0.30;0.30;;;;;;;30.40;40.98;99296.34;5131929;27;39738;-84
2021/06/05 09:55:34;;;;;;;0.23;0.23;;;;;;;30.22;41.23;99289.63;5132094;27;42278;-84
2021/06/05 09:58:02;;;;;;;0.40;0.40;;;;;;;30.13;40.70;99290.91;5149914;27;42575;-81
2021/06/05 10:00:33;;;;;;;0.30;0.30;;;;;;;30.03;41.06;99295.13;5131540;27;41201;-81
2021/06/05 10:03:21;;;;;;;0.20;0.20;;;;;;;29.93;41.68;99274.47;5148584;27;43194;-79
2021/06/05 10:05:51;;;;;;;0.50;0.50;;;;;;;29.93;41.33;99293.59;5128833;27;41781;-83
2021/06/05 10:08:27;;;;;;;0.33;0.33;;;;;;;29.82;41.35;99277.00;5112977;27;42589;-83
2021/06/05 10:11:02;;;;;;;0.50;0.50;;;;;;;29.79;41.41;99280.16;5150202;27;42021;-81
2021/06/05 10:13:34;;;;;;;0.30;0.30;;;;;;;29.73;41.67;99278.25;5130977;27;40710;-82
2021/06/05 10:16:07;;;;;;;0.40;0.40;;;;;;;29.76;42.62;99283.31;5149016;27;41609;-82
2021/06/05 10:18:41;;;;;;;0.33;0.33;;;;;;;29.73;42.13;99276.38;5149054;27;42570;-83
2021/06/05 10:21:14;;;;;;;0.30;0.30;;;;;;;29.78;42.66;99264.81;5130649;27;42192;-81
2021/06/05 10:23:45;;;;;;;0.63;0.53;;;;;;;29.93;41.95;99284.56;5132744;27;39030;-80
2021/06/05 10:26:22;;;;;;;0.20;0.20;;;;;;;30.01;42.57;99281.66;5122902;27;42081;-83
2021/06/05 10:28:54;;;;;;;0.30;0.30;;;;;;;30.05;41.99;99282.06;5132097;27;41972;-82
2021/06/05 10:31:23;;;;;;;0.30;0.30;;;;;;;29.99;41.88;99275.56;5149876;27;42925;-81
2021/06/05 10:33:54;;;;;;;0.47;0.40;;;;;;;30.08;41.96;99271.56;5150428;27;39906;-82
2021/06/05 10:36:25;;;;;;;0.70;0.70;;;;;;;30.01;41.82;99254.34;5142090;27;40974;-80
2021/06/05 10:38:55;;;;;;;0.60;0.60;;;;;;;30.08;41.71;99277.03;5149668;27;42832;-83
2021/06/05 10:41:32;;;;;;;0.33;0.33;;;;;;;29.96;41.40;99275.97;5132668;27;41109;-83
2021/06/05 10:44:00;;;;;;;0.50;0.50;;;;;;;29.86;41.59;99262.72;5131085;27;40067;-82
2021/06/05 10:46:39;;;;;;;0.37;0.37;;;;;;;29.97;42.07;99264.00;5110521;27;41519;-80
2021/06/05 10:49:14;;;;;;;0.70;0.40;;;;;;;29.89;41.53;99253.28;5111125;27;41927;-81
2021/06/05 10:51:45;;;;;;;0.40;0.40;;;;;;;30.01;42.01;99262.53;5110031;27;42202;-80
2021/06/05 10:54:20;;;;;;;0.80;0.80;;;;;;;30.03;41.90;99257.72;5127483;27;40717;-81
2021/06/05 10:57:00;;;;;;;0.40;0.40;;;;;;;30.00;41.69;99245.31;5133236;27;42303;-79
2021/06/05 10:59:43;;;;;;;0.40;0.40;;;;;;;30.22;42.02;99254.09;5133516;27;43208;-82
2021/06/05 11:02:31;;;;;;;0.77;0.73;;;;;;;30.36;40.97;99252.19;5134481;27;42292;-80
2021/06/05 11:04:59;;;;;;;0.57;0.57;;;;;;;30.54;40.64;99249.63;5149611;27;38780;-81
2021/06/05 11:07:32;;;;;;;0.50;0.50;;;;;;;30.70;40.54;99253.81;5152549;27;40452;-81
2021/06/05 11:10:03;;;;;;;0.53;0.53;;;;;;;30.85;40.47;99237.97;5151765;27;42002;-82
2021/06/05 11:12:49;;;;;;;0.30;0.30;;;;;;;31.13;40.16;99245.88;5134682;27;42903;-82
2021/06/05 11:15:49;;;;;;;0.20;0.20;;;;;;;31.21;39.17;99245.59;5117784;27;39019;-81
2021/06/05 11:18:35;;;;;;;0.43;0.43;;;;;;;31.30;39.29;99247.00;5117162;27;41302;-81
2021/06/05 11:21:44;;;;;;;0.30;0.30;;;;;;;31.29;39.74;99236.28;5117075;27;42149;-81
2021/06/05 11:24:23;;;;;;;0.60;0.60;;;;;;;31.34;39.19;99242.78;5031178;28;42151;-81
2021/06/05 11:26:53;;;;;;;0.50;0.50;;;;;;;31.53;41.10;99216.31;5028854;28;40218;-83
2021/06/05 11:29:50;;;;;;;0.50;0.50;;;;;;;31.92;39.56;99220.66;5119160;27;41476;-82
2021/06/05 11:32:46;;;;;;;0.93;0.70;;;;;;;32.21;39.36;99232.88;5135199;27;45046;-81
2021/06/05 11:35:31;;;;;;;0.50;0.50;;;;;;;32.59;39.20;99226.34;5142620;27;42031;-80
2021/06/05 11:37:59;;;;;;;0.90;0.90;;;;;;;32.96;36.74;99241.75;5152210;27;39845;-81
2021/06/05 11:40:56;;;;;;;0.57;0.57;;;;;;;33.46;35.80;99246.97;5135723;27;40676;-81
2021/06/05 11:43:39;;;;;;;1.37;0.70;;;;;;;33.95;35.32;99233.97;5132528;27;43415;-80
2021/06/05 11:46:11;;;;;;;0.77;0.77;;;;;;;34.95;34.10;99259.41;5130440;27;42532;-80
2021/06/05 11:48:47;;;;;;;0.43;0.43;;;;;;;35.72;33.35;99258.97;5151747;27;40914;-80
2021/06/05 11:51:35;;;;;;;0.47;0.47;;;;;;;36.53;33.49;99239.03;5115585;27;40783;-79
2021/06/05 11:54:19;;;;;;;0.40;0.40;;;;;;;36.53;31.85;99219.72;5134302;27;42011;-81